Flatgap, Kentucky
Current Conditions -  °F | °C
As of 10:15 PM on Saturday 25 Oct 2014 (Local Time) from KSJS Reporting Station
Clear Clear  
Wind Chill: 61°   Ceiling: Unl
Heat Index: 61°   Visibility: 10mi
Dew Point: 54°   Wind: 5mph
Humidity: 78%   Direction: 240°WSW
Pressure: 29.96"   Gusts: NA
Location:  37.93°N, 82.89°W
Report Text: KSJS 260215Z AUTO 24004KT 10SM CLR 16/12 A2996 RMK AO2 T01600122
Loading
Personal Weather Stations






























Interactive Weather Map
Tropical Storm Tracking
New forecast layout! Learn more

10-Day Weather Forecast

Advertisements
Track Severe Weather on mobile